sensor_id;sensor_type;location;lat;lon;timestamp;temperature;humidity
22742;DHT22;11538;48.884;8.696;2022-08-21T00:01:51;18.70;99.90
22742;DHT22;11538;48.884;8.696;2022-08-21T00:04:19;18.60;99.90
22742;DHT22;11538;48.884;8.696;2022-08-21T00:06:51;18.40;99.90
22742;DHT22;11538;48.884;8.696;2022-08-21T00:09:19;18.30;99.90
22742;DHT22;11538;48.884;8.696;2022-08-21T00:11:47;18.20;99.90
22742;DHT22;11538;48.884;8.696;2022-08-21T00:14:15;18.10;99.90
22742;DHT22;11538;48.884;8.696;2022-08-21T00:16:42;18.00;99.90
22742;DHT22;11538;48.884;8.696;2022-08-21T00:19:10;17.90;99.90
22742;DHT22;11538;48.884;8.696;2022-08-21T00:21:37;17.90;99.90
22742;DHT22;11538;48.884;8.696;2022-08-21T00:24:04;17.80;99.90
22742;DHT22;11538;48.884;8.696;2022-08-21T00:26:33;17.90;99.90
22742;DHT22;11538;48.884;8.696;2022-08-21T00:29:03;17.80;99.90
22742;DHT22;11538;48.884;8.696;2022-08-21T00:31:30;17.80;99.90
22742;DHT22;11538;48.884;8.696;2022-08-21T00:33:58;17.70;99.90
22742;DHT22;11538;48.884;8.696;2022-08-21T00:36:27;17.70;99.90
22742;DHT22;11538;48.884;8.696;2022-08-21T00:38:55;17.70;99.90
22742;DHT22;11538;48.884;8.696;2022-08-21T00:41:22;17.70;99.90
22742;DHT22;11538;48.884;8.696;2022-08-21T00:44:06;17.60;99.90
22742;DHT22;11538;48.884;8.696;2022-08-21T00:46:35;17.50;99.90
22742;DHT22;11538;48.884;8.696;2022-08-21T00:49:04;17.40;99.90
22742;DHT22;11538;48.884;8.696;2022-08-21T00:51:41;17.40;99.90
22742;DHT22;11538;48.884;8.696;2022-08-21T00:54:26;17.40;99.90
22742;DHT22;11538;48.884;8.696;2022-08-21T00:56:58;17.50;99.90
22742;DHT22;11538;48.884;8.696;2022-08-21T00:59:34;17.40;99.90
22742;DHT22;11538;48.884;8.696;2022-08-21T01:02:05;17.40;99.90
22742;DHT22;11538;48.884;8.696;2022-08-21T01:04:34;17.40;99.90
22742;DHT22;11538;48.884;8.696;2022-08-21T01:07:02;17.40;99.90
22742;DHT22;11538;48.884;8.696;2022-08-21T01:09:29;17.40;99.90
22742;DHT22;11538;48.884;8.696;2022-08-21T01:11:56;17.30;99.90
22742;DHT22;11538;48.884;8.696;2022-08-21T01:14:24;17.30;99.90
22742;DHT22;11538;48.884;8.696;2022-08-21T01:16:52;17.20;99.90
22742;DHT22;11538;48.884;8.696;2022-08-21T01:19:21;17.10;99.90
22742;DHT22;11538;48.884;8.696;2022-08-21T01:21:48;17.10;99.90
22742;DHT22;11538;48.884;8.696;2022-08-21T01:24:16;17.10;99.90
22742;DHT22;11538;48.884;8.696;2022-08-21T01:26:44;17.10;99.90
22742;DHT22;11538;48.884;8.696;2022-08-21T01:29:29;17.10;99.90
22742;DHT22;11538;48.884;8.696;2022-08-21T01:32:07;17.10;99.90
22742;DHT22;11538;48.884;8.696;2022-08-21T01:34:37;17.20;99.90
22742;DHT22;11538;48.884;8.696;2022-08-21T01:37:08;17.10;99.90
22742;DHT22;11538;48.884;8.696;2022-08-21T01:39:36;17.10;99.90
22742;DHT22;11538;48.884;8.696;2022-08-21T01:42:04;17.20;99.90
22742;DHT22;11538;48.884;8.696;2022-08-21T01:44:33;17.20;99.90
22742;DHT22;11538;48.884;8.696;2022-08-21T01:47:04;17.20;99.90
22742;DHT22;11538;48.884;8.696;2022-08-21T01:49:35;17.10;99.90
22742;DHT22;11538;48.884;8.696;2022-08-21T01:52:04;17.10;99.90
22742;DHT22;11538;48.884;8.696;2022-08-21T01:54:36;17.10;99.90
22742;DHT22;11538;48.884;8.696;2022-08-21T01:57:05;17.10;99.90
22742;DHT22;11538;48.884;8.696;2022-08-21T01:59:33;17.00;99.90
22742;DHT22;11538;48.884;8.696;2022-08-21T02:02:01;17.00;99.90
22742;DHT22;11538;48.884;8.696;2022-08-21T02:04:30;16.90;99.90
22742;DHT22;11538;48.884;8.696;2022-08-21T02:06:57;16.90;99.90
22742;DHT22;11538;48.884;8.696;2022-08-21T02:09:24;16.90;99.90
22742;DHT22;11538;48.884;8.696;2022-08-21T02:11:51;16.80;99.90
22742;DHT22;11538;48.884;8.696;2022-08-21T02:14:18;16.90;99.90
22742;DHT22;11538;48.884;8.696;2022-08-21T02:16:58;16.90;99.90
22742;DHT22;11538;48.884;8.696;2022-08-21T02:19:34;16.90;99.90
22742;DHT22;11538;48.884;8.696;2022-08-21T02:22:09;16.80;99.90
22742;DHT22;11538;48.884;8.696;2022-08-21T02:24:37;16.90;99.90
22742;DHT22;11538;48.884;8.696;2022-08-21T02:27:24;16.80;99.90
22742;DHT22;11538;48.884;8.696;2022-08-21T02:29:55;16.80;99.90
22742;DHT22;11538;48.884;8.696;2022-08-21T02:32:24;16.80;99.90
22742;DHT22;11538;48.884;8.696;2022-08-21T02:34:52;16.80;99.90
22742;DHT22;11538;48.884;8.696;2022-08-21T02:37:20;16.70;99.90
22742;DHT22;11538;48.884;8.696;2022-08-21T02:39:47;16.70;99.90
22742;DHT22;11538;48.884;8.696;2022-08-21T02:42:14;16.70;99.90
22742;DHT22;11538;48.884;8.696;2022-08-21T02:44:42;16.70;99.90
22742;DHT22;11538;48.884;8.696;2022-08-21T02:47:09;16.70;99.90
22742;DHT22;11538;48.884;8.696;2022-08-21T02:49:36;16.80;99.90
22742;DHT22;11538;48.884;8.696;2022-08-21T02:52:03;16.70;99.90
22742;DHT22;11538;48.884;8.696;2022-08-21T02:54:32;16.80;99.90
22742;DHT22;11538;48.884;8.696;2022-08-21T02:56:59;16.70;99.90
22742;DHT22;11538;48.884;8.696;2022-08-21T02:59:26;16.80;99.90
22742;DHT22;11538;48.884;8.696;2022-08-21T03:01:53;16.80;99.90
22742;DHT22;11538;48.884;8.696;2022-08-21T03:04:20;16.70;99.90
22742;DHT22;11538;48.884;8.696;2022-08-21T03:06:47;16.70;99.90
22742;DHT22;11538;48.884;8.696;2022-08-21T03:09:14;16.70;99.90
22742;DHT22;11538;48.884;8.696;2022-08-21T03:11:41;16.60;99.90
22742;DHT22;11538;48.884;8.696;2022-08-21T03:14:08;16.60;99.90
22742;DHT22;11538;48.884;8.696;2022-08-21T03:16:35;16.60;99.90
22742;DHT22;11538;48.884;8.696;2022-08-21T03:19:03;16.60;99.90
22742;DHT22;11538;48.884;8.696;2022-08-21T03:21:30;16.50;99.90
22742;DHT22;11538;48.884;8.696;2022-08-21T03:23:57;16.60;99.90
22742;DHT22;11538;48.884;8.696;2022-08-21T03:26:24;16.50;99.90
22742;DHT22;11538;48.884;8.696;2022-08-21T03:28:53;16.60;99.90
22742;DHT22;11538;48.884;8.696;2022-08-21T03:31:24;16.50;99.90
22742;DHT22;11538;48.884;8.696;2022-08-21T03:33:55;16.50;99.90
22742;DHT22;11538;48.884;8.696;2022-08-21T03:36:23;16.50;99.90
22742;DHT22;11538;48.884;8.696;2022-08-21T03:38:50;16.40;99.90
22742;DHT22;11538;48.884;8.696;2022-08-21T03:41:17;16.30;99.90
22742;DHT22;11538;48.884;8.696;2022-08-21T03:43:44;16.30;99.90
22742;DHT22;11538;48.884;8.696;2022-08-21T03:46:11;16.20;99.90
22742;DHT22;11538;48.884;8.696;2022-08-21T03:48:38;16.20;99.90
22742;DHT22;11538;48.884;8.696;2022-08-21T03:51:06;16.30;99.90
22742;DHT22;11538;48.884;8.696;2022-08-21T03:53:33;16.30;99.90
22742;DHT22;11538;48.884;8.696;2022-08-21T03:56:01;16.30;99.90
22742;DHT22;11538;48.884;8.696;2022-08-21T03:58:28;16.40;99.90
22742;DHT22;11538;48.884;8.696;2022-08-21T04:00:59;16.40;99.90
22742;DHT22;11538;48.884;8.696;2022-08-21T04:03:27;16.40;99.90
22742;DHT22;11538;48.884;8.696;2022-08-21T04:05:55;16.40;99.90
22742;DHT22;11538;48.884;8.696;2022-08-21T04:08:22;16.40;99.90
22742;DHT22;11538;48.884;8.696;2022-08-21T04:10:51;16.40;99.90
22742;DHT22;11538;48.884;8.696;2022-08-21T04:13:21;16.40;99.90
22742;DHT22;11538;48.884;8.696;2022-08-21T04:15:49;16.30;99.90
22742;DHT22;11538;48.884;8.696;2022-08-21T04:18:16;16.30;99.90
22742;DHT22;11538;48.884;8.696;2022-08-21T04:20:45;16.20;99.90
22742;DHT22;11538;48.884;8.696;2022-08-21T04:23:20;16.20;99.90
22742;DHT22;11538;48.884;8.696;2022-08-21T04:25:50;16.20;99.90
22742;DHT22;11538;48.884;8.696;2022-08-21T04:28:23;16.20;99.90
22742;DHT22;11538;48.884;8.696;2022-08-21T04:30:55;16.20;99.90
22742;DHT22;11538;48.884;8.696;2022-08-21T04:33:23;16.10;99.90
22742;DHT22;11538;48.884;8.696;2022-08-21T04:35:50;16.10;99.90
22742;DHT22;11538;48.884;8.696;2022-08-21T04:38:18;16.00;99.90
22742;DHT22;11538;48.884;8.696;2022-08-21T04:40:45;16.00;99.90
22742;DHT22;11538;48.884;8.696;2022-08-21T04:43:14;16.00;99.90
22742;DHT22;11538;48.884;8.696;2022-08-21T04:45:44;16.00;99.90
22742;DHT22;11538;48.884;8.696;2022-08-21T04:48:16;16.00;99.90
22742;DHT22;11538;48.884;8.696;2022-08-21T04:51:06;16.10;99.90
22742;DHT22;11538;48.884;8.696;2022-08-21T04:53:55;16.10;99.90
22742;DHT22;11538;48.884;8.696;2022-08-21T04:56:30;16.10;99.90
22742;DHT22;11538;48.884;8.696;2022-08-21T04:59:13;16.20;99.90
22742;DHT22;11538;48.884;8.696;2022-08-21T05:01:45;16.20;99.90
22742;DHT22;11538;48.884;8.696;2022-08-21T05:04:15;16.10;99.90
22742;DHT22;11538;48.884;8.696;2022-08-21T05:06:46;16.10;99.90
22742;DHT22;11538;48.884;8.696;2022-08-21T05:09:20;16.10;99.90
22742;DHT22;11538;48.884;8.696;2022-08-21T05:11:48;16.10;99.90
22742;DHT22;11538;48.884;8.696;2022-08-21T05:14:15;16.10;99.90
22742;DHT22;11538;48.884;8.696;2022-08-21T05:16:42;16.10;99.90
22742;DHT22;11538;48.884;8.696;2022-08-21T05:19:10;16.00;99.90
22742;DHT22;11538;48.884;8.696;2022-08-21T05:21:41;16.00;99.90
22742;DHT22;11538;48.884;8.696;2022-08-21T05:24:10;16.00;99.90
22742;DHT22;11538;48.884;8.696;2022-08-21T05:26:38;16.00;99.90
22742;DHT22;11538;48.884;8.696;2022-08-21T05:29:13;16.00;99.90
22742;DHT22;11538;48.884;8.696;2022-08-21T05:31:42;16.00;99.90
22742;DHT22;11538;48.884;8.696;2022-08-21T05:34:09;16.10;99.90
22742;DHT22;11538;48.884;8.696;2022-08-21T05:36:36;16.10;99.90
22742;DHT22;11538;48.884;8.696;2022-08-21T05:39:04;16.20;99.90
22742;DHT22;11538;48.884;8.696;2022-08-21T05:41:31;16.20;99.90
22742;DHT22;11538;48.884;8.696;2022-08-21T05:44:01;16.20;99.90
22742;DHT22;11538;48.884;8.696;2022-08-21T05:46:28;16.30;99.90
22742;DHT22;11538;48.884;8.696;2022-08-21T05:48:56;16.30;99.90
22742;DHT22;11538;48.884;8.696;2022-08-21T05:51:23;16.30;99.90
22742;DHT22;11538;48.884;8.696;2022-08-21T05:53:50;16.40;99.90
22742;DHT22;11538;48.884;8.696;2022-08-21T05:56:17;16.40;99.90
22742;DHT22;11538;48.884;8.696;2022-08-21T05:58:44;16.30;99.90
22742;DHT22;11538;48.884;8.696;2022-08-21T06:01:11;16.40;99.90
22742;DHT22;11538;48.884;8.696;2022-08-21T06:03:40;16.40;99.90
22742;DHT22;11538;48.884;8.696;2022-08-21T06:06:08;16.40;99.90
22742;DHT22;11538;48.884;8.696;2022-08-21T06:08:36;16.50;99.90
22742;DHT22;11538;48.884;8.696;2022-08-21T06:11:04;16.60;99.90
22742;DHT22;11538;48.884;8.696;2022-08-21T06:13:32;16.70;99.90
22742;DHT22;11538;48.884;8.696;2022-08-21T06:16:04;16.90;99.90
22742;DHT22;11538;48.884;8.696;2022-08-21T06:18:34;17.00;99.90
22742;DHT22;11538;48.884;8.696;2022-08-21T06:21:03;17.10;99.90
22742;DHT22;11538;48.884;8.696;2022-08-21T06:23:31;17.10;99.90
22742;DHT22;11538;48.884;8.696;2022-08-21T06:26:00;17.20;99.90
22742;DHT22;11538;48.884;8.696;2022-08-21T06:28:28;17.30;99.90
22742;DHT22;11538;48.884;8.696;2022-08-21T06:30:55;17.40;99.90
22742;DHT22;11538;48.884;8.696;2022-08-21T06:33:22;17.50;99.90
22742;DHT22;11538;48.884;8.696;2022-08-21T06:35:54;17.60;99.90
22742;DHT22;11538;48.884;8.696;2022-08-21T06:38:21;17.70;99.90
22742;DHT22;11538;48.884;8.696;2022-08-21T06:40:48;17.80;99.90
22742;DHT22;11538;48.884;8.696;2022-08-21T06:43:16;17.80;99.90
22742;DHT22;11538;48.884;8.696;2022-08-21T06:45:44;17.90;99.90
22742;DHT22;11538;48.884;8.696;2022-08-21T06:48:11;18.00;99.90
22742;DHT22;11538;48.884;8.696;2022-08-21T06:50:44;18.00;99.90
22742;DHT22;11538;48.884;8.696;2022-08-21T06:53:13;18.10;99.90
22742;DHT22;11538;48.884;8.696;2022-08-21T06:55:42;18.20;99.90
22742;DHT22;11538;48.884;8.696;2022-08-21T06:58:11;18.20;99.90
22742;DHT22;11538;48.884;8.696;2022-08-21T07:00:41;18.30;99.90
22742;DHT22;11538;48.884;8.696;2022-08-21T07:03:37;18.40;99.90
22742;DHT22;11538;48.884;8.696;2022-08-21T07:06:10;18.50;99.90
22742;DHT22;11538;48.884;8.696;2022-08-21T07:08:38;18.60;99.90
22742;DHT22;11538;48.884;8.696;2022-08-21T07:11:21;18.60;99.90
22742;DHT22;11538;48.884;8.696;2022-08-21T07:13:50;18.80;99.90
22742;DHT22;11538;48.884;8.696;2022-08-21T07:16:20;18.90;99.90
22742;DHT22;11538;48.884;8.696;2022-08-21T07:18:48;19.00;99.90
22742;DHT22;11538;48.884;8.696;2022-08-21T07:21:16;19.10;99.90
22742;DHT22;11538;48.884;8.696;2022-08-21T07:23:51;19.20;99.90
22742;DHT22;11538;48.884;8.696;2022-08-21T07:26:21;19.30;99.90
22742;DHT22;11538;48.884;8.696;2022-08-21T07:28:51;19.40;99.90
22742;DHT22;11538;48.884;8.696;2022-08-21T07:31:21;19.50;99.90
22742;DHT22;11538;48.884;8.696;2022-08-21T07:33:53;19.60;99.90
22742;DHT22;11538;48.884;8.696;2022-08-21T07:36:20;19.70;99.90
22742;DHT22;11538;48.884;8.696;2022-08-21T07:38:47;19.90;99.90
22742;DHT22;11538;48.884;8.696;2022-08-21T07:41:24;20.00;99.90
22742;DHT22;11538;48.884;8.696;2022-08-21T07:43:58;20.20;99.90
22742;DHT22;11538;48.884;8.696;2022-08-21T07:46:26;20.30;99.90
22742;DHT22;11538;48.884;8.696;2022-08-21T07:48:53;20.50;99.90
22742;DHT22;11538;48.884;8.696;2022-08-21T07:51:25;20.70;99.90
22742;DHT22;11538;48.884;8.696;2022-08-21T07:53:56;20.90;99.90
22742;DHT22;11538;48.884;8.696;2022-08-21T07:56:24;21.20;99.90
22742;DHT22;11538;48.884;8.696;2022-08-21T07:58:52;21.40;99.90
22742;DHT22;11538;48.884;8.696;2022-08-21T08:01:20;21.60;99.90
22742;DHT22;11538;48.884;8.696;2022-08-21T08:03:48;21.80;99.90
22742;DHT22;11538;48.884;8.696;2022-08-21T08:06:16;22.00;99.90
22742;DHT22;11538;48.884;8.696;2022-08-21T08:08:45;22.20;99.90
22742;DHT22;11538;48.884;8.696;2022-08-21T08:11:13;22.40;99.90
22742;DHT22;11538;48.884;8.696;2022-08-21T08:13:46;22.60;99.90
22742;DHT22;11538;48.884;8.696;2022-08-21T08:16:18;22.80;99.90
22742;DHT22;11538;48.884;8.696;2022-08-21T08:18:46;23.00;99.90
22742;DHT22;11538;48.884;8.696;2022-08-21T08:21:14;23.30;99.90
22742;DHT22;11538;48.884;8.696;2022-08-21T08:23:42;23.40;99.90
22742;DHT22;11538;48.884;8.696;2022-08-21T08:26:13;23.70;99.90
22742;DHT22;11538;48.884;8.696;2022-08-21T08:28:42;23.80;99.90
22742;DHT22;11538;48.884;8.696;2022-08-21T08:31:09;24.10;99.90
22742;DHT22;11538;48.884;8.696;2022-08-21T08:33:37;24.30;99.90
22742;DHT22;11538;48.884;8.696;2022-08-21T08:36:04;24.50;99.90
22742;DHT22;11538;48.884;8.696;2022-08-21T08:38:33;24.60;99.90
22742;DHT22;11538;48.884;8.696;2022-08-21T08:41:14;24.80;99.90
22742;DHT22;11538;48.884;8.696;2022-08-21T08:43:57;25.00;99.90
22742;DHT22;11538;48.884;8.696;2022-08-21T08:46:47;25.20;99.90
22742;DHT22;11538;48.884;8.696;2022-08-21T08:49:29;25.50;99.90
22742;DHT22;11538;48.884;8.696;2022-08-21T08:52:26;25.70;99.90
22742;DHT22;11538;48.884;8.696;2022-08-21T08:57:30;26.00;99.90
22742;DHT22;11538;48.884;8.696;2022-08-21T09:00:05;26.20;99.90
22742;DHT22;11538;48.884;8.696;2022-08-21T09:02:42;26.40;99.90
22742;DHT22;11538;48.884;8.696;2022-08-21T09:05:23;26.50;99.90
22742;DHT22;11538;48.884;8.696;2022-08-21T09:08:30;26.70;99.90
22742;DHT22;11538;48.884;8.696;2022-08-21T09:11:11;26.90;99.90
22742;DHT22;11538;48.884;8.696;2022-08-21T09:17:27;27.30;99.90
22742;DHT22;11538;48.884;8.696;2022-08-21T09:20:14;27.40;99.90
22742;DHT22;11538;48.884;8.696;2022-08-21T09:23:02;27.50;99.90
22742;DHT22;11538;48.884;8.696;2022-08-21T09:26:05;27.60;99.90
22742;DHT22;11538;48.884;8.696;2022-08-21T09:28:39;27.80;99.90
22742;DHT22;11538;48.884;8.696;2022-08-21T09:34:04;28.00;99.90
22742;DHT22;11538;48.884;8.696;2022-08-21T09:36:44;28.10;99.90
22742;DHT22;11538;48.884;8.696;2022-08-21T09:42:00;28.40;99.90
22742;DHT22;11538;48.884;8.696;2022-08-21T09:44:41;28.50;99.90
22742;DHT22;11538;48.884;8.696;2022-08-21T09:47:11;28.60;99.90
22742;DHT22;11538;48.884;8.696;2022-08-21T09:49:42;28.80;99.90
22742;DHT22;11538;48.884;8.696;2022-08-21T09:52:22;28.90;99.90
22742;DHT22;11538;48.884;8.696;2022-08-21T09:54:54;29.00;99.90
22742;DHT22;11538;48.884;8.696;2022-08-21T09:57:26;29.10;99.90
22742;DHT22;11538;48.884;8.696;2022-08-21T10:00:25;29.20;99.90
22742;DHT22;11538;48.884;8.696;2022-08-21T10:03:15;29.30;99.90
22742;DHT22;11538;48.884;8.696;2022-08-21T10:06:07;29.40;99.90
22742;DHT22;11538;48.884;8.696;2022-08-21T10:08:39;29.60;99.90
22742;DHT22;11538;48.884;8.696;2022-08-21T10:11:14;29.70;99.90
22742;DHT22;11538;48.884;8.696;2022-08-21T10:19:57;30.20;99.90
22742;DHT22;11538;48.884;8.696;2022-08-21T10:25:36;30.40;99.90
22742;DHT22;11538;48.884;8.696;2022-08-21T10:42:43;31.00;99.90
22742;DHT22;11538;48.884;8.696;2022-08-21T10:48:36;31.10;99.90
22742;DHT22;11538;48.884;8.696;2022-08-21T10:51:34;31.30;99.90
22742;DHT22;11538;48.884;8.696;2022-08-21T10:54:29;31.40;99.90
22742;DHT22;11538;48.884;8.696;2022-08-21T10:57:24;31.60;99.90
22742;DHT22;11538;48.884;8.696;2022-08-21T11:00:08;31.80;99.90
22742;DHT22;11538;48.884;8.696;2022-08-21T11:05:50;32.00;99.90
22742;DHT22;11538;48.884;8.696;2022-08-21T11:08:28;32.30;99.90
22742;DHT22;11538;48.884;8.696;2022-08-21T11:11:22;32.50;99.90
22742;DHT22;11538;48.884;8.696;2022-08-21T11:17:10;32.90;99.90
22742;DHT22;11538;48.884;8.696;2022-08-21T11:19:54;33.00;99.90
22742;DHT22;11538;48.884;8.696;2022-08-21T11:22:50;33.20;99.90
22742;DHT22;11538;48.884;8.696;2022-08-21T11:25:35;33.50;99.90
22742;DHT22;11538;48.884;8.696;2022-08-21T11:28:17;33.60;99.90
22742;DHT22;11538;48.884;8.696;2022-08-21T11:34:16;33.80;99.90
22742;DHT22;11538;48.884;8.696;2022-08-21T11:37:02;34.00;99.90
22742;DHT22;11538;48.884;8.696;2022-08-21T11:40:04;34.20;99.90
22742;DHT22;11538;48.884;8.696;2022-08-21T11:51:27;35.20;99.90
22742;DHT22;11538;48.884;8.696;2022-08-21T12:00:05;35.50;99.90
22742;DHT22;11538;48.884;8.696;2022-08-21T12:02:42;35.70;99.90
22742;DHT22;11538;48.884;8.696;2022-08-21T12:05:29;36.00;99.90
22742;DHT22;11538;48.884;8.696;2022-08-21T12:08:06;36.20;99.90
22742;DHT22;11538;48.884;8.696;2022-08-21T12:10:58;36.50;99.90
22742;DHT22;11538;48.884;8.696;2022-08-21T12:13:40;36.60;99.90
22742;DHT22;11538;48.884;8.696;2022-08-21T12:16:31;36.80;99.90
22742;DHT22;11538;48.884;8.696;2022-08-21T12:21:51;37.30;99.90
22742;DHT22;11538;48.884;8.696;2022-08-21T12:24:48;37.60;99.90
22742;DHT22;11538;48.884;8.696;2022-08-21T12:27:30;37.70;99.90
22742;DHT22;11538;48.884;8.696;2022-08-21T12:32:57;38.00;99.90
22742;DHT22;11538;48.884;8.696;2022-08-21T12:35:41;38.10;99.90
22742;DHT22;11538;48.884;8.696;2022-08-21T12:38:32;38.10;99.90
22742;DHT22;11538;48.884;8.696;2022-08-21T12:41:16;38.20;99.90
22742;DHT22;11538;48.884;8.696;2022-08-21T12:46:43;38.20;99.90
22742;DHT22;11538;48.884;8.696;2022-08-21T12:49:27;38.20;99.90
22742;DHT22;11538;48.884;8.696;2022-08-21T12:52:19;38.10;99.90
22742;DHT22;11538;48.884;8.696;2022-08-21T12:54:51;38.00;99.90
22742;DHT22;11538;48.884;8.696;2022-08-21T12:57:22;38.00;99.90
22742;DHT22;11538;48.884;8.696;2022-08-21T12:59:57;37.80;99.90
22742;DHT22;11538;48.884;8.696;2022-08-21T13:02:31;37.50;99.90
22742;DHT22;11538;48.884;8.696;2022-08-21T13:05:04;37.50;99.90
22742;DHT22;11538;48.884;8.696;2022-08-21T13:07:35;37.40;99.90
22742;DHT22;11538;48.884;8.696;2022-08-21T13:10:25;37.10;99.90
22742;DHT22;11538;48.884;8.696;2022-08-21T13:12:58;36.60;99.90
22742;DHT22;11538;48.884;8.696;2022-08-21T13:15:40;36.00;99.90
22742;DHT22;11538;48.884;8.696;2022-08-21T13:18:27;35.90;99.90
22742;DHT22;11538;48.884;8.696;2022-08-21T13:21:12;35.80;99.90
22742;DHT22;11538;48.884;8.696;2022-08-21T13:23:43;35.60;99.90
22742;DHT22;11538;48.884;8.696;2022-08-21T13:26:21;35.70;99.90
22742;DHT22;11538;48.884;8.696;2022-08-21T13:28:49;36.10;99.90
22742;DHT22;11538;48.884;8.696;2022-08-21T13:31:21;36.30;99.90
22742;DHT22;11538;48.884;8.696;2022-08-21T13:33:54;36.20;99.90
22742;DHT22;11538;48.884;8.696;2022-08-21T13:36:29;35.80;99.90
22742;DHT22;11538;48.884;8.696;2022-08-21T13:39:06;35.30;99.90
22742;DHT22;11538;48.884;8.696;2022-08-21T13:41:37;34.70;99.90
22742;DHT22;11538;48.884;8.696;2022-08-21T13:44:14;34.20;99.90
22742;DHT22;11538;48.884;8.696;2022-08-21T13:46:47;33.70;99.90
22742;DHT22;11538;48.884;8.696;2022-08-21T13:49:19;33.50;99.90
22742;DHT22;11538;48.884;8.696;2022-08-21T13:51:52;33.90;99.90
22742;DHT22;11538;48.884;8.696;2022-08-21T13:54:36;34.20;99.90
22742;DHT22;11538;48.884;8.696;2022-08-21T13:57:12;34.50;99.90
22742;DHT22;11538;48.884;8.696;2022-08-21T13:59:42;34.70;99.90
22742;DHT22;11538;48.884;8.696;2022-08-21T14:02:23;34.90;99.90
22742;DHT22;11538;48.884;8.696;2022-08-21T14:04:55;35.00;99.90
22742;DHT22;11538;48.884;8.696;2022-08-21T14:07:40;34.70;99.90
22742;DHT22;11538;48.884;8.696;2022-08-21T14:10:17;34.30;99.90
22742;DHT22;11538;48.884;8.696;2022-08-21T14:12:53;33.70;99.90
22742;DHT22;11538;48.884;8.696;2022-08-21T14:15:27;33.30;99.90
22742;DHT22;11538;48.884;8.696;2022-08-21T14:18:17;32.90;99.90
22742;DHT22;11538;48.884;8.696;2022-08-21T14:20:46;32.70;99.90
22742;DHT22;11538;48.884;8.696;2022-08-21T14:23:26;32.70;99.90
22742;DHT22;11538;48.884;8.696;2022-08-21T14:25:59;32.80;99.90
22742;DHT22;11538;48.884;8.696;2022-08-21T14:28:48;33.00;99.90
22742;DHT22;11538;48.884;8.696;2022-08-21T14:31:21;33.50;99.90
22742;DHT22;11538;48.884;8.696;2022-08-21T14:33:56;33.90;99.90
22742;DHT22;11538;48.884;8.696;2022-08-21T14:36:23;34.30;99.90
22742;DHT22;11538;48.884;8.696;2022-08-21T14:38:50;34.60;99.90
22742;DHT22;11538;48.884;8.696;2022-08-21T14:41:21;34.80;99.90
22742;DHT22;11538;48.884;8.696;2022-08-21T14:43:50;34.90;99.90
22742;DHT22;11538;48.884;8.696;2022-08-21T14:46:36;34.60;99.90
22742;DHT22;11538;48.884;8.696;2022-08-21T14:49:23;34.10;99.90
22742;DHT22;11538;48.884;8.696;2022-08-21T14:51:54;33.80;99.90
22742;DHT22;11538;48.884;8.696;2022-08-21T14:54:29;33.30;99.90
22742;DHT22;11538;48.884;8.696;2022-08-21T14:57:06;33.10;99.90
22742;DHT22;11538;48.884;8.696;2022-08-21T14:59:36;33.00;99.90
22742;DHT22;11538;48.884;8.696;2022-08-21T15:02:05;33.10;99.90
22742;DHT22;11538;48.884;8.696;2022-08-21T15:04:35;33.30;99.90
22742;DHT22;11538;48.884;8.696;2022-08-21T15:07:02;33.50;99.90
22742;DHT22;11538;48.884;8.696;2022-08-21T15:09:29;33.60;99.90
22742;DHT22;11538;48.884;8.696;2022-08-21T15:11:58;33.80;99.90
22742;DHT22;11538;48.884;8.696;2022-08-21T15:14:33;33.80;99.90
22742;DHT22;11538;48.884;8.696;2022-08-21T15:17:03;33.90;99.90
22742;DHT22;11538;48.884;8.696;2022-08-21T15:19:32;33.80;99.90
22742;DHT22;11538;48.884;8.696;2022-08-21T15:22:00;33.60;99.90
22742;DHT22;11538;48.884;8.696;2022-08-21T15:24:27;33.40;99.90
22742;DHT22;11538;48.884;8.696;2022-08-21T15:26:55;33.10;99.90
22742;DHT22;11538;48.884;8.696;2022-08-21T15:29:25;32.80;99.90
22742;DHT22;11538;48.884;8.696;2022-08-21T15:32:02;32.40;99.90
22742;DHT22;11538;48.884;8.696;2022-08-21T15:34:41;32.10;99.90
22742;DHT22;11538;48.884;8.696;2022-08-21T15:37:08;31.80;99.90
22742;DHT22;11538;48.884;8.696;2022-08-21T15:39:36;31.50;99.90
22742;DHT22;11538;48.884;8.696;2022-08-21T15:42:06;31.30;99.90
22742;DHT22;11538;48.884;8.696;2022-08-21T15:44:38;31.10;99.90
22742;DHT22;11538;48.884;8.696;2022-08-21T15:47:09;30.90;99.90
22742;DHT22;11538;48.884;8.696;2022-08-21T15:49:41;30.70;99.90
22742;DHT22;11538;48.884;8.696;2022-08-21T15:52:17;30.60;99.90
22742;DHT22;11538;48.884;8.696;2022-08-21T15:54:46;30.40;99.90
22742;DHT22;11538;48.884;8.696;2022-08-21T15:57:16;30.20;99.90
22742;DHT22;11538;48.884;8.696;2022-08-21T16:00:10;30.10;99.90
22742;DHT22;11538;48.884;8.696;2022-08-21T16:02:42;30.00;99.90
22742;DHT22;11538;48.884;8.696;2022-08-21T16:05:11;29.80;99.90
22742;DHT22;11538;48.884;8.696;2022-08-21T16:07:39;29.70;99.90
22742;DHT22;11538;48.884;8.696;2022-08-21T16:10:07;29.60;99.90
22742;DHT22;11538;48.884;8.696;2022-08-21T16:12:37;29.60;99.90
22742;DHT22;11538;48.884;8.696;2022-08-21T16:15:10;29.50;99.90
22742;DHT22;11538;48.884;8.696;2022-08-21T16:17:47;29.40;99.90
22742;DHT22;11538;48.884;8.696;2022-08-21T16:20:23;29.30;99.90
22742;DHT22;11538;48.884;8.696;2022-08-21T16:22:54;29.30;99.90
22742;DHT22;11538;48.884;8.696;2022-08-21T16:25:24;29.20;99.90
22742;DHT22;11538;48.884;8.696;2022-08-21T16:27:56;29.10;99.90
22742;DHT22;11538;48.884;8.696;2022-08-21T16:30:27;29.10;99.90
22742;DHT22;11538;48.884;8.696;2022-08-21T16:32:55;29.00;99.90
22742;DHT22;11538;48.884;8.696;2022-08-21T16:35:22;28.90;99.90
22742;DHT22;11538;48.884;8.696;2022-08-21T16:37:50;28.80;99.90
22742;DHT22;11538;48.884;8.696;2022-08-21T16:40:20;28.80;99.90
22742;DHT22;11538;48.884;8.696;2022-08-21T16:42:55;28.70;99.90
22742;DHT22;11538;48.884;8.696;2022-08-21T16:45:22;28.70;99.90
22742;DHT22;11538;48.884;8.696;2022-08-21T16:47:49;28.60;99.90
22742;DHT22;11538;48.884;8.696;2022-08-21T16:50:20;28.50;99.90
22742;DHT22;11538;48.884;8.696;2022-08-21T16:52:50;28.50;99.90
22742;DHT22;11538;48.884;8.696;2022-08-21T16:55:17;28.40;99.90
22742;DHT22;11538;48.884;8.696;2022-08-21T16:57:44;28.40;99.90
22742;DHT22;11538;48.884;8.696;2022-08-21T17:00:12;28.30;99.90
22742;DHT22;11538;48.884;8.696;2022-08-21T17:02:44;28.20;99.90
22742;DHT22;11538;48.884;8.696;2022-08-21T17:05:13;28.20;99.90
22742;DHT22;11538;48.884;8.696;2022-08-21T17:07:41;28.10;99.90
22742;DHT22;11538;48.884;8.696;2022-08-21T17:10:11;28.10;99.90
22742;DHT22;11538;48.884;8.696;2022-08-21T17:12:41;28.00;99.90
22742;DHT22;11538;48.884;8.696;2022-08-21T17:15:23;27.90;99.90
22742;DHT22;11538;48.884;8.696;2022-08-21T17:17:54;27.80;99.90